Time;durP1;ratioP1;P1;durP2;ratioP2;P2;SDS_P1;SDS_P2;PMS_P1;PMS_P2;Temp;Humidity;BMP_temperature;BMP_pressure;BME280_temperature;BME280_humidity;BME280_pressure;Samples;Min_cycle;Max_cycle;Signal;HPM_P1;HPM_P2
2022/11/11 00:01:18;;;;;;;17.77;11.37;;;10.10;85.30;;;;;;5008046;28;20627;-73
2022/11/11 00:03:44;;;;;;;24.90;11.77;;;10.10;84.50;;;;;;5006910;28;20598;-74
2022/11/11 00:06:13;;;;;;;23.98;12.15;;;10.10;84.20;;;;;;5008233;28;20215;-72
2022/11/11 00:08:39;;;;;;;24.10;13.02;;;10.10;84.00;;;;;;5008576;28;20917;-73
2022/11/11 00:11:10;;;;;;;24.42;14.80;;;10.10;84.10;;;;;;5008343;28;20208;-72
2022/11/11 00:13:37;;;;;;;30.30;16.65;;;10.20;84.00;;;;;;5004709;28;20181;-73
2022/11/11 00:16:14;;;;;;;42.03;17.88;;;10.20;84.00;;;;;;4989616;28;20188;-73
2022/11/11 00:27:07;;;;;;;30.45;18.38;;;10.10;83.00;;;;;;5004556;28;20335;-73
2022/11/11 00:29:32;;;;;;;39.05;19.67;;;10.10;83.40;;;;;;5006161;28;20753;-73
2022/11/11 00:35:51;;;;;;;28.57;15.17;;;10.00;83.50;;;;;;5006395;28;20287;-73
2022/11/11 00:37:28;;;;;;;23.30;13.67;;;10.00;83.80;;;;;;5006041;28;20184;-74
2022/11/11 00:39:54;;;;;;;18.15;11.32;;;10.10;85.10;;;;;;5007235;28;20196;-74
2022/11/11 00:42:20;;;;;;;18.58;11.80;;;10.10;85.60;;;;;;5008736;28;20181;-72
2022/11/11 00:44:45;;;;;;;16.77;9.65;;;10.10;86.40;;;;;;5007138;28;20177;-74
2022/11/11 00:52:39;;;;;;;15.27;9.67;;;10.20;87.80;;;;;;5007265;28;20401;-74
2022/11/11 00:55:05;;;;;;;16.98;9.95;;;10.20;88.10;;;;;;5006426;28;20884;-74
2022/11/11 00:57:31;;;;;;;12.47;8.53;;;10.30;88.30;;;;;;5005019;28;20185;-74
2022/11/11 00:59:57;;;;;;;15.88;9.25;;;10.40;88.40;;;;;;5009302;28;20316;-74
2022/11/11 01:02:22;;;;;;;15.65;9.35;;;10.40;88.20;;;;;;5005796;28;20264;-74
2022/11/11 01:04:48;;;;;;;17.38;9.90;;;10.40;88.50;;;;;;5005421;28;20745;-74
2022/11/11 01:07:14;;;;;;;17.97;9.27;;;10.50;88.70;;;;;;5007288;28;20778;-74
2022/11/11 01:09:39;;;;;;;17.33;9.68;;;10.50;88.50;;;;;;5006280;28;20267;-74
2022/11/11 01:12:05;;;;;;;14.52;9.18;;;10.60;88.20;;;;;;5007035;28;20575;-73
2022/11/11 01:14:31;;;;;;;12.43;8.38;;;10.60;88.40;;;;;;5008121;28;20188;-74
2022/11/11 01:16:56;;;;;;;15.60;9.52;;;10.60;88.20;;;;;;5007711;28;20184;-74
2022/11/11 01:19:22;;;;;;;15.02;9.93;;;10.70;88.40;;;;;;4987385;28;20229;-74
2022/11/11 01:21:47;;;;;;;16.35;10.05;;;10.70;88.40;;;;;;4987885;28;21615;-74
2022/11/11 01:24:14;;;;;;;15.10;8.38;;;10.70;88.70;;;;;;5005325;28;20188;-74
2022/11/11 01:26:40;;;;;;;16.00;10.25;;;10.70;88.70;;;;;;5005326;28;20244;-74
2022/11/11 01:29:05;;;;;;;14.90;8.68;;;10.70;88.70;;;;;;5004004;28;20236;-74
2022/11/11 01:31:31;;;;;;;14.75;8.43;;;10.70;89.30;;;;;;5005513;28;20189;-73
2022/11/11 01:33:57;;;;;;;14.77;8.77;;;10.70;89.00;;;;;;5006590;28;20189;-74
2022/11/11 01:36:26;;;;;;;16.13;9.40;;;10.70;89.50;;;;;;5007334;28;20192;-73
2022/11/11 01:38:58;;;;;;;16.02;9.45;;;10.80;88.70;;;;;;5003743;28;20263;-73
2022/11/11 01:41:34;;;;;;;13.63;8.90;;;10.80;89.60;;;;;;5004628;28;20173;-72
2022/11/11 01:44:18;;;;;;;13.32;8.75;;;10.80;89.20;;;;;;5006303;28;20180;-73
2022/11/11 01:46:50;;;;;;;16.98;10.60;;;10.80;88.90;;;;;;4987975;28;20213;-73
2022/11/11 01:49:30;;;;;;;18.48;9.68;;;10.80;89.60;;;;;;5006332;28;20223;-74
2022/11/11 01:52:00;;;;;;;16.73;9.80;;;10.70;89.70;;;;;;5007664;28;20180;-73
2022/11/11 01:54:40;;;;;;;20.52;10.77;;;10.80;89.90;;;;;;5005587;28;20185;-73
2022/11/11 01:57:25;;;;;;;16.85;10.65;;;10.80;89.10;;;;;;5002244;28;20185;-74
2022/11/11 01:59:59;;;;;;;19.10;10.57;;;10.80;89.40;;;;;;5004648;28;20230;-72
2022/11/11 02:02:37;;;;;;;17.95;10.05;;;10.80;89.00;;;;;;4987625;28;20673;-73
2022/11/11 02:07:49;;;;;;;16.13;9.45;;;10.80;89.50;;;;;;5002243;28;20777;-73
2022/11/11 02:10:20;;;;;;;17.63;10.40;;;10.80;89.90;;;;;;5002919;28;20570;-73
2022/11/11 02:15:30;;;;;;;19.70;11.32;;;10.70;90.50;;;;;;5003075;28;20243;-74
2022/11/11 02:17:56;;;;;;;16.92;10.68;;;10.60;90.30;;;;;;5003703;28;20189;-72
2022/11/11 02:20:25;;;;;;;18.13;11.07;;;10.60;90.90;;;;;;5006308;28;20185;-73
2022/11/11 02:22:59;;;;;;;24.20;10.95;;;10.60;90.60;;;;;;5004460;28;20256;-73
2022/11/11 02:25:29;;;;;;;17.35;11.20;;;10.70;90.00;;;;;;5004411;28;20185;-73
2022/11/11 02:28:00;;;;;;;22.33;10.43;;;10.70;90.20;;;;;;5005719;28;20240;-73
2022/11/11 02:30:25;;;;;;;18.30;10.50;;;10.70;90.30;;;;;;5005212;28;20235;-73
2022/11/11 02:32:53;;;;;;;19.83;11.38;;;10.70;90.40;;;;;;5004546;28;20177;-73
2022/11/11 02:35:28;;;;;;;20.60;11.77;;;10.70;90.50;;;;;;5002106;28;20185;-73
2022/11/11 02:37:55;;;;;;;19.58;11.60;;;10.60;90.70;;;;;;5004388;28;20192;-73
2022/11/11 02:40:36;;;;;;;18.05;11.68;;;10.60;91.00;;;;;;5004514;28;20181;-73
2022/11/11 02:43:03;;;;;;;16.92;10.45;;;10.60;90.10;;;;;;4987717;28;20187;-73
2022/11/11 02:45:29;;;;;;;20.80;10.60;;;10.60;90.30;;;;;;5002786;28;20181;-73
2022/11/11 02:47:54;;;;;;;18.75;10.73;;;10.60;90.70;;;;;;4986192;28;20212;-73
2022/11/11 02:50:20;;;;;;;18.13;10.03;;;10.60;91.30;;;;;;5002902;28;20192;-73
2022/11/11 02:52:45;;;;;;;19.55;11.27;;;10.50;91.00;;;;;;5003547;28;20187;-72
2022/11/11 02:55:11;;;;;;;13.40;9.55;;;10.60;91.10;;;;;;5001918;28;20196;-73
2022/11/11 02:57:37;;;;;;;17.23;10.65;;;10.70;91.40;;;;;;4987426;28;20185;-73
2022/11/11 03:00:04;;;;;;;16.67;9.88;;;10.70;91.10;;;;;;5002329;28;20193;-73
2022/11/11 03:02:30;;;;;;;16.10;10.23;;;10.70;91.20;;;;;;4983867;28;20679;-73
2022/11/11 03:04:57;;;;;;;16.80;10.32;;;10.80;90.70;;;;;;5004853;28;20181;-72
2022/11/11 03:07:24;;;;;;;17.08;10.85;;;10.80;90.60;;;;;;5003683;28;20223;-73
2022/11/11 03:09:50;;;;;;;17.42;10.35;;;10.90;90.20;;;;;;5003349;28;20200;-73
2022/11/11 03:12:16;;;;;;;19.67;9.85;;;11.00;90.50;;;;;;5002180;28;20177;-73
2022/11/11 03:14:42;;;;;;;18.88;10.98;;;11.10;89.90;;;;;;5002906;28;20244;-73
2022/11/11 03:21:03;;;;;;;15.68;10.30;;;11.20;89.70;;;;;;5003137;28;20196;-72
2022/11/11 03:22:38;;;;;;;17.10;10.05;;;11.30;89.40;;;;;;5003295;28;20187;-73
2022/11/11 03:27:48;;;;;;;16.52;10.27;;;11.30;89.80;;;;;;5003459;28;20273;-73
2022/11/11 03:30:14;;;;;;;19.52;11.65;;;11.30;90.00;;;;;;4985374;28;20733;-74
2022/11/11 03:32:39;;;;;;;18.75;11.05;;;11.40;90.10;;;;;;5005131;28;20204;-72
2022/11/11 03:35:05;;;;;;;17.88;10.50;;;11.40;90.30;;;;;;5001680;28;20769;-73
2022/11/11 03:40:15;;;;;;;16.92;10.48;;;11.50;90.20;;;;;;5003468;28;20274;-73
2022/11/11 03:42:42;;;;;;;17.80;10.48;;;11.50;89.70;;;;;;5001084;28;20268;-73
2022/11/11 03:45:08;;;;;;;19.23;10.45;;;11.60;89.40;;;;;;5002022;28;20181;-72
2022/11/11 03:47:34;;;;;;;19.00;11.00;;;11.60;89.60;;;;;;5000980;28;20213;-72
2022/11/11 03:49:59;;;;;;;16.42;9.55;;;11.70;89.50;;;;;;5001874;28;20185;-72
2022/11/11 03:52:25;;;;;;;16.65;9.45;;;11.60;89.70;;;;;;5000057;28;21414;-72
2022/11/11 03:54:51;;;;;;;16.55;9.77;;;11.60;90.50;;;;;;4958414;28;1185864;-72
2022/11/11 03:57:31;;;;;;;18.88;10.52;;;11.60;91.10;;;;;;5003579;28;20192;-74
2022/11/11 03:59:57;;;;;;;17.27;10.13;;;11.60;90.80;;;;;;5002981;28;20239;-73
2022/11/11 04:10:36;;;;;;;19.15;10.98;;;11.80;90.90;;;;;;5002383;28;20332;-73
2022/11/11 04:16:07;;;;;;;16.20;10.38;;;11.70;91.20;;;;;;4960745;28;20777;-74
2022/11/11 04:27:01;;;;;;;15.40;10.10;;;11.90;90.60;;;;;;4960416;28;20205;-73
2022/11/11 04:29:27;;;;;;;20.42;11.55;;;11.80;90.90;;;;;;4958104;28;20199;-73
2022/11/11 04:34:39;;;;;;;20.02;10.85;;;11.90;90.70;;;;;;4960247;28;20193;-73
2022/11/11 04:37:05;;;;;;;16.92;9.60;;;11.80;91.60;;;;;;4960172;28;20190;-72
2022/11/11 04:42:15;;;;;;;16.08;10.68;;;11.70;91.80;;;;;;4956490;28;20820;-75
2022/11/11 04:47:25;;;;;;;13.40;8.95;;;11.70;92.10;;;;;;4964608;28;20296;-75
2022/11/11 04:49:50;;;;;;;13.55;9.55;;;11.80;91.80;;;;;;4980557;28;20275;-73
2022/11/11 04:52:25;;;;;;;14.23;9.60;;;11.80;91.30;;;;;;5003606;28;20242;-74
2022/11/11 04:57:40;;;;;;;16.30;9.75;;;11.80;91.80;;;;;;5006307;28;20670;-74
2022/11/11 05:00:06;;;;;;;14.40;9.02;;;11.70;92.30;;;;;;5004764;28;20192;-74
2022/11/11 05:05:16;;;;;;;10.90;7.68;;;11.70;92.40;;;;;;5008875;28;20208;-73
2022/11/11 05:10:26;;;;;;;15.15;9.43;;;11.70;92.30;;;;;;5007001;28;20200;-73
2022/11/11 05:12:51;;;;;;;16.98;10.07;;;11.80;91.40;;;;;;5006932;28;20189;-73
2022/11/11 05:26:17;;;;;;;11.60;7.82;;;11.90;91.10;;;;;;5008412;28;20216;-73
2022/11/11 05:28:42;;;;;;;11.90;7.43;;;11.80;91.20;;;;;;5005492;28;20181;-74
2022/11/11 05:31:08;;;;;;;12.98;7.28;;;11.90;91.10;;;;;;4986129;28;20181;-74
2022/11/11 05:33:34;;;;;;;9.98;7.28;;;11.70;91.30;;;;;;5005561;28;20571;-71
2022/11/11 05:35:59;;;;;;;9.32;7.18;;;11.70;91.40;;;;;;5008697;28;20700;-74
2022/11/11 05:38:25;;;;;;;12.23;7.10;;;11.80;90.90;;;;;;5005662;28;20272;-73
2022/11/11 05:40:51;;;;;;;13.25;7.68;;;11.80;90.40;;;;;;5004765;28;20209;-75
2022/11/11 05:43:17;;;;;;;12.13;7.10;;;11.90;90.20;;;;;;4988342;28;20189;-75
2022/11/11 05:45:42;;;;;;;13.13;7.35;;;11.80;90.70;;;;;;5006165;28;20231;-77
2022/11/11 05:48:08;;;;;;;13.48;8.35;;;11.80;90.30;;;;;;5004741;28;20227;-75
2022/11/11 05:50:35;;;;;;;11.80;7.75;;;11.90;89.90;;;;;;5005801;28;20185;-75
2022/11/11 05:53:01;;;;;;;10.85;7.32;;;11.90;90.20;;;;;;5007445;28;20177;-75
2022/11/11 05:55:27;;;;;;;13.23;7.93;;;11.90;89.90;;;;;;5007743;28;20204;-74
2022/11/11 05:57:52;;;;;;;12.68;7.05;;;12.00;89.80;;;;;;5007022;28;20181;-74
2022/11/11 06:00:18;;;;;;;10.05;7.75;;;12.00;89.70;;;;;;5005513;28;20194;-75
2022/11/11 06:02:44;;;;;;;10.75;7.30;;;12.00;89.10;;;;;;5006655;28;20275;-75
2022/11/11 06:05:09;;;;;;;12.00;7.95;;;12.00;89.00;;;;;;5006547;28;20192;-75
2022/11/11 06:07:41;;;;;;;9.75;7.32;;;12.10;89.10;;;;;;5005403;28;20216;-74
2022/11/11 06:13:01;;;;;;;16.23;8.75;;;12.10;89.10;;;;;;5004074;28;20190;-75
2022/11/11 06:15:27;;;;;;;12.88;7.70;;;12.20;89.30;;;;;;4986689;28;20290;-74
2022/11/11 06:17:53;;;;;;;10.90;7.30;;;12.20;88.90;;;;;;5002170;28;20666;-75
2022/11/11 06:20:19;;;;;;;12.40;7.32;;;12.20;88.80;;;;;;5002907;28;20263;-75
2022/11/11 06:22:56;;;;;;;13.38;7.13;;;12.30;88.90;;;;;;5004678;28;20181;-74
2022/11/11 06:28:11;;;;;;;15.00;8.02;;;12.30;88.90;;;;;;5001701;28;20237;-73
2022/11/11 06:30:36;;;;;;;13.13;8.23;;;12.30;88.90;;;;;;5002133;28;20589;-75
2022/11/11 06:33:02;;;;;;;12.48;7.47;;;12.20;89.20;;;;;;5001761;28;20749;-76
2022/11/11 06:35:28;;;;;;;11.27;6.95;;;12.30;88.90;;;;;;5004033;28;20189;-74
2022/11/11 06:37:54;;;;;;;9.18;7.25;;;12.30;89.10;;;;;;4985607;28;20193;-74
2022/11/11 06:40:19;;;;;;;13.18;8.23;;;12.10;89.40;;;;;;5007193;28;20662;-75
2022/11/11 06:42:45;;;;;;;13.35;8.10;;;12.20;89.00;;;;;;4984550;28;20192;-74
2022/11/11 06:45:11;;;;;;;13.75;9.00;;;12.20;89.40;;;;;;5004346;28;20185;-75
2022/11/11 06:47:36;;;;;;;13.45;8.07;;;12.10;89.50;;;;;;5004105;28;20201;-74
2022/11/11 06:50:02;;;;;;;15.55;7.85;;;12.10;89.40;;;;;;5004725;28;20228;-74
2022/11/11 06:52:28;;;;;;;13.27;8.73;;;12.20;89.10;;;;;;5003541;28;20174;-74
2022/11/11 06:54:53;;;;;;;12.70;8.13;;;12.10;89.40;;;;;;5000672;28;20990;-74
2022/11/11 06:57:22;;;;;;;10.38;6.97;;;12.20;89.30;;;;;;5005694;28;20188;-73
2022/11/11 06:59:47;;;;;;;9.38;7.15;;;12.20;89.30;;;;;;5004396;28;20200;-73
2022/11/11 07:02:13;;;;;;;13.05;8.98;;;12.10;89.30;;;;;;5004763;28;20212;-74
2022/11/11 07:04:39;;;;;;;15.20;7.28;;;12.10;89.60;;;;;;5006110;28;20185;-74
2022/11/11 07:07:05;;;;;;;10.93;7.00;;;12.00;90.00;;;;;;5001030;28;20224;-74
2022/11/11 07:09:31;;;;;;;12.52;7.70;;;12.00;90.10;;;;;;5003766;28;20189;-74
2022/11/11 07:11:56;;;;;;;8.68;6.25;;;11.90;90.30;;;;;;5000305;28;20196;-74
2022/11/11 07:14:22;;;;;;;10.30;6.72;;;11.80;91.20;;;;;;5003462;28;20189;-75
2022/11/11 07:16:47;;;;;;;8.45;6.13;;;11.70;91.60;;;;;;5002744;28;20189;-74
2022/11/11 07:19:13;;;;;;;11.07;6.68;;;11.70;91.60;;;;;;5003266;28;20647;-75
2022/11/11 07:21:39;;;;;;;7.43;6.07;;;11.70;91.60;;;;;;4999805;28;20270;-75
2022/11/11 07:24:04;;;;;;;12.07;8.10;;;11.50;92.00;;;;;;5001774;28;20297;-75
2022/11/11 07:26:30;;;;;;;11.63;6.32;;;11.60;91.30;;;;;;5002317;28;20240;-74
2022/11/11 07:28:56;;;;;;;11.73;7.00;;;11.70;91.30;;;;;;5000267;28;20196;-74
2022/11/11 07:31:21;;;;;;;13.68;8.27;;;11.70;91.50;;;;;;4999260;28;20243;-74
2022/11/11 07:33:47;;;;;;;8.75;6.32;;;11.70;91.20;;;;;;4983684;28;20186;-73
2022/11/11 07:36:12;;;;;;;9.63;6.43;;;11.70;91.40;;;;;;4997591;28;20195;-74
2022/11/11 07:38:38;;;;;;;8.80;6.18;;;11.60;91.40;;;;;;4998352;28;20199;-74
2022/11/11 07:41:04;;;;;;;9.27;6.70;;;11.60;91.60;;;;;;5001452;28;20216;-74
2022/11/11 07:43:30;;;;;;;9.88;6.25;;;11.60;91.40;;;;;;4984975;28;20207;-74
2022/11/11 07:45:56;;;;;;;9.90;6.88;;;11.60;91.40;;;;;;4981981;28;20187;-74
2022/11/11 07:48:21;;;;;;;7.40;6.20;;;11.50;91.90;;;;;;5004595;28;20187;-76
2022/11/11 07:50:47;;;;;;;11.32;6.65;;;11.50;92.00;;;;;;4985255;28;20219;-74
2022/11/11 07:53:13;;;;;;;9.68;6.68;;;11.60;91.50;;;;;;5001177;28;20177;-75
2022/11/11 07:55:38;;;;;;;10.85;7.47;;;11.70;91.00;;;;;;5000845;28;21092;-74
2022/11/11 07:58:05;;;;;;;9.10;5.70;;;11.60;91.40;;;;;;5002450;28;20709;-74
2022/11/11 08:00:31;;;;;;;11.38;6.45;;;11.70;91.10;;;;;;5004100;28;20188;-75
2022/11/11 08:02:56;;;;;;;9.93;6.07;;;11.70;91.00;;;;;;4997451;28;20635;-75
2022/11/11 08:05:22;;;;;;;11.05;6.15;;;11.80;90.70;;;;;;5001454;28;20200;-74
2022/11/11 08:07:48;;;;;;;6.65;5.78;;;11.80;90.70;;;;;;4996785;28;20217;-75
2022/11/11 08:10:14;;;;;;;9.48;5.93;;;11.70;90.60;;;;;;5003163;28;20722;-74
2022/11/11 08:15:23;;;;;;;8.45;6.10;;;11.70;90.30;;;;;;5003278;28;20327;-74
2022/11/11 08:17:49;;;;;;;9.25;5.85;;;11.70;90.20;;;;;;5001833;28;21107;-77
2022/11/11 08:20:15;;;;;;;9.27;5.43;;;11.70;90.40;;;;;;5002370;28;20284;-76
2022/11/11 08:22:42;;;;;;;6.88;5.57;;;11.50;90.60;;;;;;5001501;28;20174;-77
2022/11/11 08:25:12;;;;;;;8.32;5.63;;;11.60;90.50;;;;;;5004965;28;20196;-76
2022/11/11 08:27:38;;;;;;;9.38;7.18;;;11.60;90.70;;;;;;5005101;28;20213;-75
2022/11/11 08:30:06;;;;;;;8.25;6.03;;;11.60;91.00;;;;;;5005807;28;20219;-75
2022/11/11 08:32:33;;;;;;;10.73;6.70;;;11.60;90.70;;;;;;5002008;28;20185;-76
2022/11/11 08:34:58;;;;;;;8.07;6.15;;;11.70;90.50;;;;;;5003918;28;20202;-76
2022/11/11 08:37:24;;;;;;;7.78;5.65;;;11.70;90.40;;;;;;5006301;28;20189;-77
2022/11/11 08:39:51;;;;;;;9.05;6.10;;;11.80;90.50;;;;;;5007094;28;20597;-75
2022/11/11 08:42:17;;;;;;;5.75;5.15;;;11.80;90.00;;;;;;5006977;28;20276;-74
2022/11/11 08:44:43;;;;;;;9.65;5.40;;;11.90;89.60;;;;;;5006840;28;20666;-76
2022/11/11 08:47:09;;;;;;;8.50;5.38;;;11.80;89.70;;;;;;5006246;28;20212;-74
2022/11/11 08:49:34;;;;;;;10.23;5.68;;;11.80;89.60;;;;;;5006249;28;20677;-75
2022/11/11 08:52:01;;;;;;;6.00;4.90;;;11.90;89.40;;;;;;5004292;28;20555;-75
2022/11/11 08:54:26;;;;;;;10.45;6.28;;;11.90;89.50;;;;;;5004445;28;20181;-75
2022/11/11 08:56:52;;;;;;;8.77;5.82;;;11.90;89.50;;;;;;5006011;28;20191;-77
2022/11/11 08:59:18;;;;;;;11.15;6.22;;;12.00;89.50;;;;;;5003289;28;20276;-75
2022/11/11 09:01:44;;;;;;;9.18;5.95;;;12.00;89.30;;;;;;5003650;28;21053;-76
2022/11/11 09:04:10;;;;;;;9.25;6.18;;;12.00;89.00;;;;;;5002938;28;20207;-75
2022/11/11 09:06:35;;;;;;;6.53;5.72;;;12.10;88.90;;;;;;5006229;28;20311;-74
2022/11/11 09:09:02;;;;;;;7.03;4.95;;;12.10;88.60;;;;;;5004784;28;20181;-75
2022/11/11 09:11:34;;;;;;;8.57;6.43;;;12.10;88.60;;;;;;5004635;28;20566;-75
2022/11/11 09:14:01;;;;;;;4.60;4.30;;;12.10;88.40;;;;;;5004560;28;20220;-75
2022/11/11 09:16:27;;;;;;;9.63;5.72;;;12.20;88.10;;;;;;5002223;28;21171;-75
2022/11/11 09:18:53;;;;;;;6.32;5.00;;;12.20;88.00;;;;;;5004333;28;20184;-75
2022/11/11 09:21:19;;;;;;;7.32;5.22;;;12.30;87.60;;;;;;5004791;28;20186;-74
2022/11/11 09:23:45;;;;;;;5.80;5.13;;;12.40;87.30;;;;;;5001956;28;20181;-75
2022/11/11 09:26:11;;;;;;;7.13;4.88;;;12.40;87.30;;;;;;5003944;28;20611;-76
2022/11/11 09:28:36;;;;;;;5.20;4.70;;;12.40;86.70;;;;;;5002650;28;20659;-75
2022/11/11 09:31:03;;;;;;;5.32;3.63;;;12.40;86.60;;;;;;5004612;28;20251;-74
2022/11/11 09:33:28;;;;;;;5.78;3.95;;;12.40;86.10;;;;;;5001565;28;20192;-74
2022/11/11 09:35:56;;;;;;;4.43;3.83;;;12.30;86.20;;;;;;5003248;28;20441;-74
2022/11/11 09:38:22;;;;;;;8.20;4.95;;;12.40;86.10;;;;;;5003936;28;20224;-74
2022/11/11 09:41:07;;;;;;;5.18;4.72;;;12.50;85.50;;;;;;5002015;28;20189;-74
2022/11/11 09:43:52;;;;;;;4.40;4.10;;;12.60;85.10;;;;;;5003589;28;20736;-73
2022/11/11 09:46:30;;;;;;;4.78;4.20;;;12.70;84.90;;;;;;5003366;28;20264;-75
2022/11/11 09:49:02;;;;;;;4.75;4.30;;;12.60;84.70;;;;;;4998816;28;20184;-75
2022/11/11 09:51:47;;;;;;;9.77;4.80;;;12.50;85.00;;;;;;5003035;28;20196;-75
2022/11/11 09:54:24;;;;;;;6.13;4.95;;;12.60;85.20;;;;;;5004794;28;20655;-74
2022/11/11 09:56:51;;;;;;;7.88;3.80;;;12.60;85.10;;;;;;5003873;28;20605;-73
2022/11/11 09:59:40;;;;;;;4.82;3.95;;;12.60;85.00;;;;;;5002473;28;20217;-76
2022/11/11 10:02:23;;;;;;;3.78;3.50;;;12.50;85.00;;;;;;5002655;28;20195;-75
2022/11/11 10:05:04;;;;;;;3.10;2.42;;;12.50;85.30;;;;;;5004496;28;20278;-75
2022/11/11 10:07:59;;;;;;;4.65;3.50;;;12.40;85.20;;;;;;5002940;28;20220;-74
2022/11/11 10:10:45;;;;;;;3.60;3.30;;;12.50;85.20;;;;;;5002632;28;20212;-75
2022/11/11 10:13:19;;;;;;;4.60;3.60;;;12.50;85.10;;;;;;5004258;28;20223;-75
2022/11/11 10:15:53;;;;;;;3.67;3.33;;;12.60;85.00;;;;;;5003362;28;20181;-75
2022/11/11 10:18:29;;;;;;;4.03;3.60;;;12.70;84.50;;;;;;4986179;28;20187;-75
2022/11/11 10:20:55;;;;;;;4.03;3.72;;;12.80;84.10;;;;;;5006045;28;20188;-74
2022/11/11 10:23:31;;;;;;;5.05;4.55;;;13.10;84.60;;;;;;5004172;28;20246;-76
2022/11/11 10:26:01;;;;;;;3.60;3.38;;;13.60;82.50;;;;;;5001574;28;20184;-75
2022/11/11 10:28:35;;;;;;;3.88;3.67;;;14.10;81.10;;;;;;5003965;28;20571;-75
2022/11/11 10:31:04;;;;;;;3.95;3.75;;;14.50;79.70;;;;;;4989095;28;20199;-75
2022/11/11 10:34:04;;;;;;;3.22;3.00;;;14.80;78.70;;;;;;5004516;28;20271;-75
2022/11/11 10:36:30;;;;;;;4.40;3.97;;;15.00;77.60;;;;;;5002235;28;20251;-75
2022/11/11 10:39:04;;;;;;;3.90;3.60;;;15.10;77.60;;;;;;5005128;28;20216;-75
2022/11/11 10:41:38;;;;;;;5.15;4.30;;;15.00;77.40;;;;;;5002564;28;20225;-75
2022/11/11 10:44:20;;;;;;;4.70;4.35;;;15.10;77.30;;;;;;4987118;28;20197;-74
2022/11/11 10:47:26;;;;;;;5.30;4.75;;;14.90;77.30;;;;;;5002620;28;20205;-74
2022/11/11 10:50:21;;;;;;;4.90;4.25;;;14.80;77.50;;;;;;4919522;29;20217;-75
2022/11/11 10:53:02;;;;;;;4.70;4.32;;;14.70;77.60;;;;;;4879420;29;20201;-74
2022/11/11 10:55:51;;;;;;;4.85;4.45;;;14.50;77.60;;;;;;4880127;29;20676;-74
2022/11/11 10:58:33;;;;;;;3.28;3.00;;;14.50;77.60;;;;;;4878110;29;20608;-75
2022/11/11 11:01:00;;;;;;;4.10;3.20;;;14.10;77.00;;;;;;4876536;29;20205;-74
2022/11/11 11:03:44;;;;;;;3.83;3.53;;;14.00;77.70;;;;;;4877231;29;20598;-75
2022/11/11 11:06:13;;;;;;;4.28;3.50;;;13.90;77.80;;;;;;4879131;29;20296;-75
2022/11/11 11:08:46;;;;;;;4.88;4.45;;;13.90;78.00;;;;;;4881054;29;20200;-74
2022/11/11 11:11:20;;;;;;;7.35;3.75;;;13.90;77.80;;;;;;4882332;29;20204;-74
2022/11/11 11:13:53;;;;;;;4.25;3.85;;;13.70;78.00;;;;;;4878989;29;20200;-73
2022/11/11 11:16:31;;;;;;;4.10;3.15;;;13.70;78.20;;;;;;4879596;29;21024;-75
2022/11/11 11:19:20;;;;;;;3.88;3.67;;;13.70;78.00;;;;;;4881498;29;20834;-73
2022/11/11 11:21:51;;;;;;;4.20;3.83;;;13.60;78.20;;;;;;4875283;29;21004;-74
2022/11/11 11:24:36;;;;;;;3.72;3.50;;;13.60;78.40;;;;;;4881700;28;20220;-74
2022/11/11 11:27:07;;;;;;;3.65;3.22;;;13.70;78.10;;;;;;4931059;28;20227;-76
2022/11/11 11:29:34;;;;;;;3.75;3.15;;;13.80;77.40;;;;;;4956241;28;20321;-74
2022/11/11 11:32:26;;;;;;;3.35;3.15;;;13.80;76.90;;;;;;4998896;28;20197;-75
2022/11/11 11:34:54;;;;;;;3.03;2.83;;;13.90;75.80;;;;;;4998482;28;20733;-73
2022/11/11 11:37:23;;;;;;;2.35;2.17;;;13.80;75.40;;;;;;5000666;28;20200;-73
2022/11/11 11:40:02;;;;;;;3.75;3.00;;;13.80;75.30;;;;;;4998443;28;20493;-75
2022/11/11 11:42:35;;;;;;;3.13;3.00;;;13.90;75.20;;;;;;4998422;28;20216;-74
2022/11/11 11:45:30;;;;;;;3.10;2.90;;;14.00;74.40;;;;;;5001811;28;20250;-75
2022/11/11 11:48:30;;;;;;;3.20;3.00;;;14.20;75.10;;;;;;5000245;28;20236;-74
2022/11/11 11:51:14;;;;;;;3.50;3.25;;;14.40;75.30;;;;;;4998328;28;20177;-74
2022/11/11 11:54:08;;;;;;;3.17;3.03;;;14.70;74.40;;;;;;4998603;28;20197;-74
2022/11/11 11:56:37;;;;;;;3.60;2.75;;;14.80;73.50;;;;;;4937448;28;20210;-74
2022/11/11 11:59:23;;;;;;;2.92;2.72;;;14.90;72.90;;;;;;4937357;28;20627;-74
2022/11/11 12:02:04;;;;;;;2.80;2.60;;;15.00;73.00;;;;;;4942595;28;20222;-73
2022/11/11 12:04:57;;;;;;;3.03;2.83;;;15.10;73.60;;;;;;4938252;28;20199;-74
2022/11/11 12:07:34;;;;;;;3.33;3.13;;;15.00;72.70;;;;;;4939804;28;20387;-74
2022/11/11 12:10:15;;;;;;;3.10;2.80;;;15.00;72.60;;;;;;4934628;28;20202;-74
2022/11/11 12:12:52;;;;;;;3.55;2.78;;;15.00;72.70;;;;;;4936698;28;20226;-74
2022/11/11 12:15:31;;;;;;;2.72;2.53;;;14.90;73.20;;;;;;4937265;28;20665;-75
2022/11/11 12:18:24;;;;;;;4.07;3.65;;;14.90;73.50;;;;;;4941896;28;20195;-74
2022/11/11 12:21:03;;;;;;;2.95;2.75;;;14.80;72.70;;;;;;4941546;28;20204;-75
2022/11/11 12:24:02;;;;;;;2.20;2.10;;;14.80;72.50;;;;;;4940444;28;21180;-74
2022/11/11 12:26:35;;;;;;;2.42;2.33;;;14.70;72.90;;;;;;4941184;28;20231;-74
2022/11/11 12:29:16;;;;;;;5.43;3.08;;;14.70;72.80;;;;;;4937622;28;22173;-74
2022/11/11 12:31:42;;;;;;;3.53;2.90;;;14.60;73.10;;;;;;4937270;28;20195;-73
2022/11/11 12:34:42;;;;;;;3.13;2.83;;;14.60;72.80;;;;;;4987820;28;20623;-73
2022/11/11 12:37:43;;;;;;;2.85;2.65;;;14.50;72.80;;;;;;5004829;28;20181;-74
2022/11/11 12:40:50;;;;;;;2.83;2.63;;;14.40;72.80;;;;;;4984641;28;20216;-74
2022/11/11 12:43:27;;;;;;;2.92;2.72;;;14.40;72.80;;;;;;4981473;28;20228;-74
2022/11/11 12:46:29;;;;;;;3.25;2.97;;;14.40;73.20;;;;;;4981770;28;20189;-74
2022/11/11 12:49:13;;;;;;;7.13;2.67;;;14.40;73.10;;;;;;4983023;28;20201;-73
2022/11/11 12:51:38;;;;;;;3.72;3.00;;;14.20;73.20;;;;;;4980062;28;20193;-73
2022/11/11 12:54:11;;;;;;;3.50;2.78;;;14.20;73.20;;;;;;4983371;28;20204;-73
2022/11/11 12:56:54;;;;;;;2.75;2.55;;;14.30;73.60;;;;;;4980897;28;20196;-75
2022/11/11 12:59:39;;;;;;;2.22;2.13;;;14.20;73.70;;;;;;4980535;28;20201;-74
2022/11/11 13:02:10;;;;;;;2.53;2.28;;;14.20;74.00;;;;;;4982732;28;20193;-75
2022/11/11 13:04:48;;;;;;;2.38;2.28;;;14.20;73.90;;;;;;4979533;28;20217;-73
2022/11/11 13:07:40;;;;;;;2.25;2.20;;;14.20;74.00;;;;;;4980822;28;20277;-74
2022/11/11 13:10:19;;;;;;;2.45;2.20;;;14.20;74.10;;;;;;4981156;28;20750;-73
2022/11/11 13:13:03;;;;;;;3.05;2.85;;;14.10;74.10;;;;;;4981523;28;20740;-74
2022/11/11 13:15:29;;;;;;;2.53;2.42;;;14.20;74.00;;;;;;5004289;28;20177;-75
2022/11/11 13:17:59;;;;;;;2.60;2.45;;;14.10;73.80;;;;;;5003799;28;20196;-75
2022/11/11 13:20:43;;;;;;;5.07;2.60;;;14.10;73.80;;;;;;5005274;28;20232;-75
2022/11/11 13:23:10;;;;;;;3.13;2.70;;;14.10;73.90;;;;;;4987070;28;20836;-75
2022/11/11 13:25:42;;;;;;;2.60;2.50;;;14.10;73.90;;;;;;5002849;28;20193;-74
2022/11/11 13:28:38;;;;;;;2.58;2.47;;;14.00;74.20;;;;;;5004068;28;20697;-75
2022/11/11 13:31:39;;;;;;;2.53;2.33;;;14.00;74.30;;;;;;4941219;28;20203;-74
2022/11/11 13:34:10;;;;;;;2.30;2.20;;;14.00;74.30;;;;;;4945036;28;20186;-74
2022/11/11 13:36:44;;;;;;;2.08;1.98;;;14.00;74.20;;;;;;4943217;28;20236;-75
2022/11/11 13:39:43;;;;;;;4.45;2.80;;;14.00;74.20;;;;;;4944042;28;20241;-74
2022/11/11 13:42:12;;;;;;;2.45;2.35;;;14.00;74.00;;;;;;4925533;28;20390;-74
2022/11/11 13:44:53;;;;;;;3.72;2.90;;;14.00;74.20;;;;;;4942245;28;20576;-73
2022/11/11 13:47:23;;;;;;;2.35;2.17;;;14.00;74.20;;;;;;4942362;28;20259;-74
2022/11/11 13:49:57;;;;;;;2.72;2.60;;;13.90;74.20;;;;;;4942129;28;20199;-74
2022/11/11 13:52:32;;;;;;;4.38;2.63;;;13.90;74.10;;;;;;4942232;28;20376;-75
2022/11/11 13:55:06;;;;;;;4.53;2.55;;;14.00;74.00;;;;;;4944415;28;20298;-72
2022/11/11 13:57:34;;;;;;;2.67;2.47;;;13.90;74.00;;;;;;4941590;28;20351;-75
2022/11/11 14:00:27;;;;;;;2.63;2.42;;;13.90;74.00;;;;;;4941982;28;20183;-74
2022/11/11 14:03:16;;;;;;;2.67;2.47;;;13.90;74.00;;;;;;4943769;28;20635;-74
2022/11/11 14:05:42;;;;;;;3.17;2.88;;;13.90;74.10;;;;;;4895362;29;20208;-76
2022/11/11 14:08:08;;;;;;;2.47;2.38;;;13.90;74.20;;;;;;4908842;29;20227;-74
2022/11/11 14:10:34;;;;;;;2.53;2.30;;;13.90;74.20;;;;;;4895297;29;20196;-74
2022/11/11 14:13:22;;;;;;;2.30;2.20;;;13.90;74.20;;;;;;4904873;29;20267;-75
2022/11/11 14:15:51;;;;;;;2.88;2.67;;;13.90;74.10;;;;;;4863735;29;20217;-75
2022/11/11 14:18:17;;;;;;;3.28;2.97;;;13.90;74.10;;;;;;4862809;29;20209;-75
2022/11/11 14:20:54;;;;;;;4.70;2.80;;;13.90;74.20;;;;;;4857853;29;20601;-75
2022/11/11 14:23:25;;;;;;;2.70;2.13;;;13.90;74.20;;;;;;4859030;29;20289;-75
2022/11/11 14:26:11;;;;;;;2.80;2.60;;;13.90;74.20;;;;;;4858501;29;21334;-75
2022/11/11 14:28:53;;;;;;;2.65;2.45;;;13.80;74.50;;;;;;4818818;29;20316;-75